createdAt,value
2018-12-13T00:01:06.539Z,1.50
2018-12-13T00:03:44.973Z,1.50
2018-12-13T00:06:23.621Z,1.50
2018-12-13T00:08:57.365Z,1.50
2018-12-13T00:11:31.464Z,1.40
2018-12-13T00:14:04.877Z,1.40
2018-12-13T00:16:39.113Z,1.40
2018-12-13T00:19:12.461Z,1.40
2018-12-13T00:21:45.163Z,1.50
2018-12-13T00:24:19.969Z,1.40
2018-12-13T00:26:54.501Z,1.40
2018-12-13T00:29:28.034Z,1.40
2018-12-13T00:32:04.991Z,1.50
2018-12-13T00:34:40.110Z,1.50
2018-12-13T00:37:14.809Z,1.50
2018-12-13T00:39:52.587Z,1.50
2018-12-13T00:42:26.284Z,1.60
2018-12-13T00:45:00.555Z,1.60
2018-12-13T00:47:34.417Z,1.60
2018-12-13T00:50:14.699Z,1.60
2018-12-13T00:52:47.345Z,1.60
2018-12-13T00:55:20.932Z,1.60
2018-12-13T00:57:54.115Z,1.60
2018-12-13T01:00:28.667Z,1.60
2018-12-13T01:03:03.615Z,1.60
2018-12-13T01:05:38.136Z,1.50
2018-12-13T01:08:17.210Z,1.50
2018-12-13T01:10:50.633Z,1.50
2018-12-13T01:13:28.231Z,1.40
2018-12-13T01:16:01.162Z,1.40
2018-12-13T01:18:34.373Z,1.50
2018-12-13T01:21:09.521Z,1.50
2018-12-13T01:23:44.417Z,1.40
2018-12-13T01:26:17.577Z,1.40
2018-12-13T01:28:55.309Z,1.40
2018-12-13T01:31:30.990Z,1.40
2018-12-13T01:34:01.997Z,1.30
2018-12-13T01:36:35.452Z,1.30
2018-12-13T01:39:07.981Z,1.30
2018-12-13T01:41:51.961Z,1.30
2018-12-13T01:44:25.889Z,1.30
2018-12-13T01:47:00.628Z,1.30
2018-12-13T01:49:40.168Z,1.30
2018-12-13T01:52:13.187Z,1.30
2018-12-13T01:54:51.976Z,1.30
2018-12-13T01:57:24.287Z,1.30
2018-12-13T01:59:56.779Z,1.20
2018-12-13T02:02:29.550Z,1.20
2018-12-13T02:05:07.833Z,1.20
2018-12-13T02:07:40.017Z,1.20
2018-12-13T02:10:12.867Z,1.20
2018-12-13T02:12:45.779Z,1.20
2018-12-13T02:15:22.097Z,1.20
2018-12-13T02:17:54.893Z,1.30
2018-12-13T02:20:28.451Z,1.30
2018-12-13T02:23:02.974Z,1.30
2018-12-13T02:25:36.325Z,1.30
2018-12-13T02:28:10.650Z,1.30
2018-12-13T02:30:43.614Z,1.20
2018-12-13T02:33:17.154Z,1.20
2018-12-13T02:35:51.815Z,1.20
2018-12-13T02:38:24.522Z,1.20
2018-12-13T02:41:00.238Z,1.10
2018-12-13T02:43:34.329Z,1.10
2018-12-13T02:46:07.461Z,1.10
2018-12-13T02:48:42.018Z,1.10
2018-12-13T02:51:17.138Z,1.10
2018-12-13T02:53:49.624Z,1.00
2018-12-13T02:56:28.499Z,1.10
2018-12-13T02:59:02.374Z,1.10
2018-12-13T03:01:36.166Z,1.10
2018-12-13T03:04:05.098Z,1.10
2018-12-13T03:06:34.897Z,1.10
2018-12-13T03:09:04.195Z,1.10
2018-12-13T03:11:33.302Z,1.20
2018-12-13T03:14:01.828Z,1.30
2018-12-13T03:16:30.559Z,1.20
2018-12-13T03:18:59.699Z,1.20
2018-12-13T03:21:29.889Z,1.20
2018-12-13T03:23:59.854Z,1.20
2018-12-13T03:26:28.876Z,1.20
2018-12-13T03:28:58.289Z,1.10
2018-12-13T03:31:27.744Z,1.10
2018-12-13T03:33:56.597Z,1.00
2018-12-13T03:36:25.591Z,1.00
2018-12-13T03:38:53.723Z,1.00
2018-12-13T03:41:22.851Z,1.00
2018-12-13T03:43:51.801Z,1.00
2018-12-13T03:46:21.172Z,1.00
2018-12-13T03:48:50.916Z,1.00
2018-12-13T03:51:20.473Z,1.00
2018-12-13T03:53:50.243Z,0.90
2018-12-13T03:56:19.093Z,0.90
2018-12-13T03:58:48.517Z,1.00
2018-12-13T04:01:18.372Z,1.10
2018-12-13T04:03:48.075Z,1.10
2018-12-13T04:06:18.406Z,1.10
2018-12-13T04:08:48.112Z,1.10
2018-12-13T04:11:16.660Z,1.00
2018-12-13T04:13:46.358Z,1.00
2018-12-13T04:16:17.156Z,1.00
2018-12-13T04:18:47.128Z,1.00
2018-12-13T04:21:16.280Z,0.90
2018-12-13T04:23:46.992Z,0.90
2018-12-13T04:26:15.644Z,0.90
2018-12-13T04:28:45.408Z,0.90
2018-12-13T04:31:14.852Z,0.80
2018-12-13T04:33:43.886Z,0.80
2018-12-13T04:36:13.606Z,0.70
2018-12-13T04:38:43.423Z,0.70
2018-12-13T04:41:13.664Z,0.60
2018-12-13T04:43:44.290Z,0.60
2018-12-13T04:46:13.766Z,0.60
2018-12-13T04:48:43.750Z,0.60
2018-12-13T04:51:13.062Z,0.60
2018-12-13T04:53:41.737Z,0.60
2018-12-13T04:56:12.672Z,0.60
2018-12-13T04:58:42.236Z,0.60
2018-12-13T05:01:11.844Z,0.60
2018-12-13T05:03:41.698Z,0.60
2018-12-13T05:06:11.349Z,0.50
2018-12-13T05:08:41.728Z,0.50
2018-12-13T05:11:12.205Z,0.50
2018-12-13T05:13:42.757Z,0.40
2018-12-13T05:16:12.476Z,0.40
2018-12-13T05:18:42.411Z,0.40
2018-12-13T05:21:11.667Z,0.40
2018-12-13T05:23:42.500Z,0.40
2018-12-13T05:26:11.300Z,0.50
2018-12-13T05:28:41.041Z,0.40
2018-12-13T05:31:10.201Z,0.40
2018-12-13T05:33:40.597Z,0.30
2018-12-13T05:36:10.496Z,0.30
2018-12-13T05:38:44.165Z,0.20
2018-12-13T05:41:13.592Z,0.20
2018-12-13T05:43:43.234Z,0.20
2018-12-13T05:46:13.128Z,0.20
2018-12-13T05:48:42.568Z,0.20
2018-12-13T05:51:12.236Z,0.20
2018-12-13T05:53:41.588Z,0.40
2018-12-13T05:56:11.472Z,0.50
2018-12-13T05:58:40.583Z,0.60
2018-12-13T06:01:10.760Z,0.70
2018-12-13T06:03:38.893Z,0.70
2018-12-13T06:06:10.305Z,0.70
2018-12-13T06:08:39.696Z,0.80
2018-12-13T06:11:08.792Z,0.70
2018-12-13T06:13:38.529Z,0.70
2018-12-13T06:16:08.418Z,0.90
2018-12-13T06:18:38.160Z,1.00
2018-12-13T06:21:11.849Z,1.00
2018-12-13T06:23:37.706Z,1.00
2018-12-13T06:26:06.935Z,1.00
2018-12-13T06:28:37.458Z,0.90
2018-12-13T06:31:06.983Z,0.90
2018-12-13T06:33:36.404Z,1.00
2018-12-13T06:36:05.848Z,1.00
2018-12-13T06:38:35.068Z,1.00
2018-12-13T06:41:05.148Z,1.00
2018-12-13T06:43:35.628Z,1.00
2018-12-13T06:46:04.582Z,0.90
2018-12-13T06:48:33.572Z,1.00
2018-12-13T06:51:03.455Z,1.00
2018-12-13T06:53:32.201Z,1.10
2018-12-13T06:56:02.452Z,1.10
2018-12-13T06:58:32.137Z,1.10
2018-12-13T07:01:01.464Z,1.10
2018-12-13T07:03:31.664Z,1.10
2018-12-13T07:06:01.072Z,1.10
2018-12-13T07:08:30.883Z,1.10
2018-12-13T07:11:00.456Z,1.10
2018-12-13T07:13:30.084Z,1.10
2018-12-13T07:15:59.688Z,1.10
2018-12-13T07:18:28.540Z,1.10
2018-12-13T07:20:58.437Z,1.10
2018-12-13T07:23:29.040Z,1.10
2018-12-13T07:25:59.843Z,1.00
2018-12-13T07:28:29.083Z,0.90
2018-12-13T07:30:58.764Z,0.90
2018-12-13T07:33:28.888Z,0.80
2018-12-13T07:35:58.860Z,0.80
2018-12-13T07:38:27.816Z,0.80
2018-12-13T07:40:58.209Z,0.70
2018-12-13T07:43:27.517Z,0.70
2018-12-13T07:45:56.778Z,0.70
2018-12-13T07:48:26.200Z,0.80
2018-12-13T07:50:56.390Z,0.80
2018-12-13T07:53:26.322Z,0.90
2018-12-13T07:55:55.436Z,0.90
2018-12-13T07:58:25.860Z,0.90
2018-12-13T08:00:55.454Z,0.90
2018-12-13T08:14:30.316Z,0.80
2018-12-13T08:16:58.544Z,0.80
2018-12-13T08:19:28.805Z,0.70
2018-12-13T08:21:58.429Z,0.70
2018-12-13T08:24:28.077Z,0.70
2018-12-13T08:26:57.330Z,0.70
2018-12-13T08:29:26.933Z,0.70
2018-12-13T08:31:56.625Z,0.80
2018-12-13T08:34:26.887Z,0.80
2018-12-13T08:36:57.211Z,0.80
2018-12-13T08:39:26.994Z,0.80
2018-12-13T08:41:56.837Z,0.80
2018-12-13T08:44:26.498Z,0.80
2018-12-13T08:46:55.369Z,0.80
2018-12-13T08:49:25.422Z,0.80
2018-12-13T08:51:55.117Z,0.80
2018-12-13T08:54:26.149Z,0.80
2018-12-13T08:56:56.275Z,0.90
2018-12-13T08:59:26.086Z,0.90
2018-12-13T09:01:55.398Z,0.90
2018-12-13T09:04:25.482Z,0.90
2018-12-13T09:06:57.031Z,1.00
2018-12-13T09:09:28.516Z,0.90
2018-12-13T09:11:57.558Z,0.90
2018-12-13T09:14:26.419Z,0.90
2018-12-13T09:16:55.401Z,0.90
2018-12-13T09:19:23.546Z,0.90
2018-12-13T09:21:53.833Z,0.80
2018-12-13T09:24:25.478Z,0.80
2018-12-13T09:26:55.037Z,0.80
2018-12-13T09:29:24.352Z,0.80
2018-12-13T09:31:53.869Z,0.90
2018-12-13T09:34:23.524Z,0.80
2018-12-13T09:36:53.728Z,0.70
2018-12-13T09:39:26.875Z,0.70
2018-12-13T09:41:57.133Z,0.70
2018-12-13T09:44:26.064Z,0.70
2018-12-13T09:46:56.290Z,0.70
2018-12-13T09:49:26.695Z,0.70
2018-12-13T09:51:57.206Z,0.70
2018-12-13T09:54:26.708Z,0.70
2018-12-13T09:56:59.816Z,0.70
2018-12-13T09:59:29.865Z,0.70
2018-12-13T10:02:02.833Z,0.70
2018-12-13T10:04:32.290Z,0.60
2018-12-13T10:07:02.103Z,0.60
2018-12-13T10:09:32.455Z,0.60
2018-12-13T10:12:03.266Z,0.70
2018-12-13T10:14:32.780Z,0.70
2018-12-13T10:17:04.089Z,0.70
2018-12-13T10:19:33.349Z,0.70
2018-12-13T10:22:02.725Z,0.80
2018-12-13T10:24:33.066Z,0.80
2018-12-13T10:27:02.388Z,0.80
2018-12-13T10:29:33.224Z,0.80
2018-12-13T10:32:06.133Z,0.80
2018-12-13T10:34:35.896Z,0.80
2018-12-13T10:37:06.212Z,0.80
2018-12-13T10:39:36.296Z,0.80
2018-12-13T10:42:06.186Z,0.80
2018-12-13T10:44:39.831Z,0.80
2018-12-13T10:47:09.193Z,0.80
2018-12-13T10:49:39.373Z,0.80
2018-12-13T10:52:08.418Z,0.80
2018-12-13T10:54:37.810Z,0.80
2018-12-13T10:57:06.763Z,0.80
2018-12-13T10:59:36.746Z,0.80
2018-12-13T11:02:10.409Z,0.80
2018-12-13T11:04:40.698Z,0.70
2018-12-13T11:07:09.742Z,0.70
2018-12-13T11:09:39.972Z,0.70
2018-12-13T11:12:11.202Z,0.70
2018-12-13T11:14:39.758Z,0.70
2018-12-13T11:17:09.541Z,0.70
2018-12-13T11:19:40.073Z,0.70
2018-12-13T11:22:11.122Z,0.70
2018-12-13T11:24:40.872Z,0.70
2018-12-13T11:27:16.449Z,0.70
2018-12-13T11:29:51.529Z,0.70
2018-12-13T11:32:21.126Z,0.70
2018-12-13T11:34:51.521Z,0.70
2018-12-13T11:37:21.481Z,0.70
2018-12-13T11:39:51.649Z,0.70
2018-12-13T11:42:20.969Z,0.70
2018-12-13T11:44:49.004Z,0.70
2018-12-13T11:47:18.758Z,0.70
2018-12-13T11:49:47.572Z,0.70
2018-12-13T11:52:17.473Z,0.70
2018-12-13T11:54:46.375Z,0.70
2018-12-13T11:57:16.867Z,0.70
2018-12-13T11:59:46.763Z,0.70
2018-12-13T12:02:16.229Z,0.80
2018-12-13T12:04:46.337Z,0.80
2018-12-13T12:07:15.612Z,0.80
2018-12-13T12:09:45.859Z,0.90
2018-12-13T12:12:16.929Z,0.90
2018-12-13T12:14:46.749Z,0.90
2018-12-13T12:17:16.603Z,0.90
2018-12-13T12:19:48.087Z,0.90
2018-12-13T12:22:18.403Z,0.80
2018-12-13T12:24:49.477Z,0.80
2018-12-13T12:27:18.841Z,0.80
2018-12-13T12:29:48.673Z,0.80
2018-12-13T12:32:18.823Z,0.70
2018-12-13T12:34:48.088Z,0.70
2018-12-13T12:37:18.625Z,0.70
2018-12-13T12:39:47.905Z,0.70
2018-12-13T12:42:18.497Z,0.70
2018-12-13T12:44:47.321Z,0.70
2018-12-13T12:47:17.636Z,0.80
2018-12-13T12:49:47.396Z,0.70
2018-12-13T12:52:17.350Z,0.80
2018-12-13T12:54:46.805Z,0.80
2018-12-13T12:57:15.981Z,0.80
2018-12-13T12:59:45.196Z,0.80
2018-12-13T13:02:14.717Z,0.90
2018-12-13T13:04:44.604Z,0.90
2018-12-13T13:07:13.779Z,0.80
2018-12-13T13:09:43.620Z,0.80
2018-12-13T13:12:13.062Z,0.80
2018-12-13T13:14:42.426Z,0.80
2018-12-13T13:17:10.825Z,0.80
2018-12-13T13:19:39.557Z,0.90
2018-12-13T13:22:09.206Z,0.90
2018-12-13T13:24:38.429Z,0.90
2018-12-13T13:27:10.565Z,0.90
2018-12-13T13:29:40.225Z,0.90
2018-12-13T13:32:09.293Z,0.90
2018-12-13T13:34:38.723Z,0.90
2018-12-13T13:37:08.645Z,0.90
2018-12-13T13:39:38.422Z,0.90
2018-12-13T13:42:12.929Z,0.90
2018-12-13T13:44:43.552Z,0.90
2018-12-13T13:47:12.513Z,0.90
2018-12-13T13:49:42.617Z,0.90
2018-12-13T13:52:12.490Z,0.90
2018-12-13T13:54:45.584Z,0.80
2018-12-13T13:57:15.814Z,0.80
2018-12-13T13:59:44.721Z,0.80
2018-12-13T14:02:14.470Z,0.80
2018-12-13T14:04:43.853Z,0.70
2018-12-13T14:07:13.329Z,0.70
2018-12-13T14:09:42.583Z,0.60
2018-12-13T14:12:17.142Z,0.60
2018-12-13T14:14:46.349Z,0.60
2018-12-13T14:17:15.612Z,0.60
2018-12-13T14:19:46.213Z,0.60
2018-12-13T14:22:15.241Z,0.60
2018-12-13T14:24:43.804Z,0.60
2018-12-13T14:27:12.946Z,0.60
2018-12-13T14:29:42.319Z,0.60
2018-12-13T14:32:11.451Z,0.50
2018-12-13T14:34:40.480Z,0.50
2018-12-13T14:37:09.817Z,0.60
2018-12-13T14:39:44.369Z,0.50
2018-12-13T14:42:11.142Z,0.50
2018-12-13T14:44:40.889Z,0.50
2018-12-13T14:47:12.330Z,0.50
2018-12-13T14:49:41.561Z,0.40
2018-12-13T14:52:10.914Z,0.40
2018-12-13T14:54:40.669Z,0.30
2018-12-13T14:57:10.793Z,0.30
2018-12-13T14:59:47.033Z,0.30
2018-12-13T15:02:13.312Z,0.30
2018-12-13T15:04:43.432Z,0.30
2018-12-13T15:07:13.253Z,0.30
2018-12-13T15:09:43.424Z,0.30
2018-12-13T15:12:12.721Z,0.30
2018-12-13T15:14:42.605Z,0.30
2018-12-13T15:17:12.314Z,0.30
2018-12-13T15:19:42.042Z,0.30
2018-12-13T15:22:11.211Z,0.30
2018-12-13T15:24:41.185Z,0.40
2018-12-13T15:27:09.769Z,0.40
2018-12-13T15:29:42.134Z,0.40
2018-12-13T15:32:13.320Z,0.40
2018-12-13T15:34:43.088Z,0.30
2018-12-13T15:37:12.257Z,0.40
2018-12-13T15:39:42.900Z,0.40
2018-12-13T15:42:11.445Z,0.30
2018-12-13T15:44:40.184Z,0.30
2018-12-13T15:47:10.440Z,0.30
2018-12-13T15:49:40.525Z,0.30
2018-12-13T15:52:10.460Z,0.30
2018-12-13T15:54:39.865Z,0.30
2018-12-13T15:57:09.913Z,0.30
2018-12-13T15:59:39.498Z,0.20
2018-12-13T16:02:09.547Z,0.20
2018-12-13T16:04:39.773Z,0.20
2018-12-13T16:07:08.916Z,0.20
2018-12-13T16:09:38.212Z,0.20
2018-12-13T16:12:08.460Z,0.20
2018-12-13T16:14:38.510Z,0.10
2018-12-13T16:17:09.387Z,0.10
2018-12-13T16:19:39.914Z,0.10
2018-12-13T16:22:09.358Z,0.10
2018-12-13T16:24:38.938Z,0.10
2018-12-13T16:27:09.409Z,0.20
2018-12-13T16:29:39.307Z,0.20
2018-12-13T16:32:09.305Z,0.10
2018-12-13T16:34:38.971Z,0.10
2018-12-13T16:37:09.006Z,0.10
2018-12-13T16:39:39.845Z,0.10
2018-12-13T16:42:08.950Z,0.10
2018-12-13T16:44:37.179Z,0.10
2018-12-13T16:47:06.343Z,0.10
2018-12-13T16:49:35.310Z,0.10
2018-12-13T16:52:05.305Z,0.10
2018-12-13T16:54:35.872Z,0.10
2018-12-13T16:57:06.981Z,0.10
2018-12-13T16:59:36.722Z,0.10
2018-12-13T17:02:07.100Z,0.10
2018-12-13T17:04:36.998Z,0.10
2018-12-13T17:07:07.524Z,0.10
2018-12-13T17:09:37.191Z,0.10
2018-12-13T17:12:06.150Z,0.10
2018-12-13T17:14:35.880Z,0.10
2018-12-13T17:17:06.688Z,0.10
2018-12-13T17:22:21.099Z,0.00
2018-12-13T17:24:51.116Z,-0.10
2018-12-13T17:27:21.325Z,-0.10
2018-12-13T17:29:50.911Z,-0.10
2018-12-13T17:32:22.253Z,-0.10
2018-12-13T17:34:51.884Z,-0.10
2018-12-13T17:37:23.948Z,-0.10
2018-12-13T18:01:50.357Z,-0.20
2018-12-13T18:04:19.504Z,-0.20
2018-12-13T18:06:48.494Z,-0.20
2018-12-13T18:09:18.319Z,-0.20
2018-12-13T18:11:47.867Z,-0.20
2018-12-13T18:14:17.316Z,-0.20
2018-12-13T18:16:47.052Z,-0.10
2018-12-13T18:19:16.768Z,-0.10
2018-12-13T18:21:46.953Z,-0.20
2018-12-13T18:24:17.077Z,-0.10
2018-12-13T18:26:47.283Z,-0.20
2018-12-13T18:29:16.644Z,-0.20
2018-12-13T18:31:45.849Z,-0.20
2018-12-13T18:34:14.639Z,-0.20
2018-12-13T18:36:43.180Z,-0.20
2018-12-13T18:39:12.223Z,-0.20
2018-12-13T18:41:41.016Z,-0.20
2018-12-13T18:44:10.222Z,-0.20
2018-12-13T18:46:40.215Z,-0.20
2018-12-13T18:49:12.657Z,-0.20
2018-12-13T18:51:42.891Z,-0.20
2018-12-13T18:54:13.025Z,-0.20
2018-12-13T18:56:43.567Z,-0.30
2018-12-13T18:59:13.253Z,-0.30
2018-12-13T19:01:42.535Z,-0.30
2018-12-13T19:04:13.453Z,-0.30
2018-12-13T19:06:42.111Z,-0.40
2018-12-13T19:10:42.013Z,-0.30
2018-12-13T19:13:12.172Z,-0.30
2018-12-13T19:15:42.184Z,-0.20
2018-12-13T19:18:12.017Z,-0.20
2018-12-13T19:20:41.147Z,-0.20
2018-12-13T19:23:10.845Z,-0.10
2018-12-13T19:25:41.078Z,-0.20
2018-12-13T19:28:10.732Z,-0.20
2018-12-13T19:30:40.387Z,-0.10
2018-12-13T19:33:09.744Z,-0.10
2018-12-13T19:35:40.140Z,-0.10
2018-12-13T19:38:11.033Z,-0.10
2018-12-13T19:40:40.240Z,0.00
2018-12-13T19:43:08.877Z,0.00
2018-12-13T19:45:38.428Z,0.00
2018-12-13T19:48:07.372Z,-0.10
2018-12-13T19:50:36.689Z,-0.10
2018-12-13T19:53:06.955Z,-0.10
2018-12-13T19:55:36.042Z,-0.10
2018-12-13T19:58:06.033Z,-0.10
2018-12-13T20:00:35.624Z,0.00
2018-12-13T20:03:05.773Z,0.00
2018-12-13T20:05:35.421Z,-0.10
2018-12-13T20:08:04.523Z,0.00
2018-12-13T20:10:33.674Z,0.00
2018-12-13T20:13:03.072Z,-0.10
2018-12-13T20:15:32.912Z,0.00
2018-12-13T20:18:02.600Z,-0.10
2018-12-13T20:20:32.651Z,-0.10
2018-12-13T20:23:02.722Z,0.00
2018-12-13T20:25:33.189Z,0.00
2018-12-13T20:28:02.622Z,-0.10
2018-12-13T20:30:33.580Z,0.00
2018-12-13T20:33:03.200Z,0.00
2018-12-13T20:35:31.774Z,0.00
2018-12-13T20:38:01.239Z,0.00
2018-12-13T20:40:30.150Z,-0.10
2018-12-13T20:42:58.500Z,-0.10
2018-12-13T20:45:26.992Z,-0.10
2018-12-13T20:47:55.669Z,-0.10
2018-12-13T20:50:24.597Z,-0.10
2018-12-13T20:52:53.121Z,-0.10
2018-12-13T20:55:22.684Z,-0.10
2018-12-13T20:57:51.665Z,-0.10
2018-12-13T21:00:21.548Z,-0.10
2018-12-13T21:02:50.765Z,-0.20
2018-12-13T21:05:20.555Z,-0.20
2018-12-13T21:07:50.543Z,-0.20
2018-12-13T21:10:20.112Z,-0.20
2018-12-13T21:12:50.900Z,-0.20
2018-12-13T21:15:20.511Z,-0.20
2018-12-13T21:17:50.521Z,-0.10
2018-12-13T21:20:19.884Z,-0.20
2018-12-13T21:22:49.664Z,-0.20
2018-12-13T21:25:19.756Z,-0.20
2018-12-13T21:27:48.962Z,-0.20
2018-12-13T21:30:19.692Z,-0.20
2018-12-13T21:32:50.643Z,-0.20
2018-12-13T21:35:20.937Z,-0.20
2018-12-13T21:37:49.972Z,-0.20
2018-12-13T21:40:19.712Z,-0.20
2018-12-13T21:42:49.349Z,-0.10
2018-12-13T21:45:18.337Z,0.00
2018-12-13T21:47:47.987Z,0.00
2018-12-13T21:50:17.529Z,-0.10
2018-12-13T21:52:46.704Z,-0.10
2018-12-13T21:55:16.760Z,-0.10
2018-12-13T21:57:46.507Z,-0.20
2018-12-13T22:00:16.628Z,-0.20
2018-12-13T22:02:49.644Z,-0.20
2018-12-13T22:05:19.532Z,-0.20
2018-12-13T22:07:49.453Z,-0.20
2018-12-13T22:10:19.656Z,-0.20
2018-12-13T22:12:49.803Z,-0.20
2018-12-13T22:15:19.692Z,-0.20
2018-12-13T22:17:49.748Z,-0.20
2018-12-13T22:20:18.810Z,-0.20
2018-12-13T22:22:48.754Z,-0.20
2018-12-13T22:25:18.720Z,-0.20
2018-12-13T22:27:48.195Z,-0.20
2018-12-13T22:30:19.245Z,-0.20
2018-12-13T22:32:48.807Z,-0.20
2018-12-13T22:35:18.792Z,-0.20
2018-12-13T22:37:48.300Z,-0.30
2018-12-13T22:40:17.209Z,-0.20
2018-12-13T22:42:45.897Z,-0.20
2018-12-13T22:45:15.632Z,-0.20
2018-12-13T22:47:45.644Z,-0.20
2018-12-13T22:50:15.432Z,-0.20
2018-12-13T22:52:45.920Z,-0.20
2018-12-13T22:55:15.884Z,-0.20
2018-12-13T22:57:45.677Z,-0.20
2018-12-13T23:00:15.036Z,-0.10
2018-12-13T23:02:44.771Z,-0.20
2018-12-13T23:05:14.640Z,-0.20
2018-12-13T23:07:43.918Z,-0.20
2018-12-13T23:10:12.539Z,-0.20
2018-12-13T23:12:41.572Z,-0.20
2018-12-13T23:15:12.015Z,-0.10
2018-12-13T23:17:42.020Z,-0.10
2018-12-13T23:20:11.724Z,-0.10
2018-12-13T23:22:40.716Z,-0.20
2018-12-13T23:25:10.371Z,-0.20
2018-12-13T23:27:39.724Z,-0.20
2018-12-13T23:30:08.692Z,-0.20
2018-12-13T23:32:37.506Z,-0.20
2018-12-13T23:35:07.332Z,-0.20
2018-12-13T23:37:37.268Z,-0.20
2018-12-13T23:40:07.189Z,-0.20
2018-12-13T23:42:36.940Z,-0.20
2018-12-13T23:45:06.276Z,-0.20
2018-12-13T23:47:36.629Z,-0.20
2018-12-13T23:50:07.524Z,-0.20
2018-12-13T23:52:36.953Z,-0.10
2018-12-13T23:55:06.199Z,-0.20
2018-12-13T23:57:36.189Z,-0.20
